Friday, December 19, 2014
10:06 UTC
  |  Log In   |  Register Free
Airport Search:

Jackson-Medgar Wiley Evers International Airport
(KJAN)

FAA data valid effective November 13, 2014 - January 08, 2015 (unless otherwise noted).

 
 
 
 
 
 
 
 
 
 
 
 
 
 

Current Aviation Weather for Jackson-Medgar Wiley Evers International Airport (KJAN)

The most recent METAR observation for KJAN was updated at: 2115
METAR Summary (Translated METAR)
KJAN
182054Z 10004KT 10SM FEW030 BKN120 10/07 A3015 RMK AO2 SLP209 60000 T01000072 56013
KHKS
182053Z 10004KT 10SM FEW033 BKN120 10/07 A3015 RMK AO2 SLP204 T01000067 56014
(7.6 nm NW from KJAN)
KJVW
182055Z AUTO 11005KT 10SM OVC043 11/08 A3014 RMK AO2
(16.9 nm SW from KJAN)
TAF Summary (Translated TAF)
KJAN
190520Z 1906/2006 12004KT P6SM BKN035 BKN120 FM190900 05004KT P6SM OVC025 FM191300 05006KT P6SM -RA OVC015 FM191700 05005KT 4SM RA BKN008 OVC015
KHKS
(7.6 nm NW from KJAN)
190520Z 1906/2006 11004KT P6SM BKN035 BKN120 FM190900 05004KT P6SM OVC025 FM191300 05006KT P6SM -RA OVC015 FM191700 05005KT 4SM RA BR BKN008 OVC015
  Airport Weather Conditions for KJAN

 Current Weather at JAN
47° F
Overcast
Variable winds at 5.8 mph
JAN NOAA Radar

Pressure: 30.15 in
Humidity: 86%
Wind: Variable at 5.8 MPH (5 KT)
Dew Point: 43.0°F
Visibility: 10.00 mi


Airport Weather Forecast for KJAN

Translated METAR and TAF for KJAN
Translated METAR for KJAN (1006 UTC 19 December 2014)
found at http://aviationweather.gov/adds/metars/
 
METAR text: KJAN 190954Z AUTO 06004KT 10SM OVC024 09/04 A3015 RMK AO2 SLP207 T00890039
Conditions at: KJAN (JACKSON , MS, US) observed 0954 UTC 19 December 2014
Temperature: 8.9°C (48°F)
Dewpoint: 3.9°C (39°F) [RH = 71%]
Pressure (altimeter): 30.15 inches Hg (1021.1 mb)
[Sea-level pressure: 1020.7 mb]
Winds: from the ENE (60 degrees) at 5 MPH (4 knots; 2.1 m/s)
Visibility: 10 or more miles (16+ km)
Ceiling: 2400 feet AGL
Clouds: overcast cloud deck at 2400 feet AGL
Weather: automated observation with no human augmentation;
there may or may not be significant weather present at this time
Translated TAF for KJAN
Forecast for: KJAN (JACKSON , MS, US)
TAF Text: KJAN 190520Z 1906/2006 12004KT P6SM BKN035 BKN120
Forecast period: 0600 to 0900 UTC 19 December 2014
Forecast type: FROM: standard forecast or significant change
Winds: from the ESE (120 degrees) at 5 MPH (4 knots; 2.1 m/s)
Visibility: 6 or more miles (10+ km)
Ceiling: 3500 feet AGL
Clouds: broken clouds at 3500 feet AGL
broken clouds at 12000 feet AGL
Weather: no significant weather forecast for this period
TAF Text: FM190900 05004KT P6SM OVC025
Forecast period: 0900 to 1300 UTC 19 December 2014
Forecast type: FROM: standard forecast or significant change
Winds: from the NE (50 degrees) at 5 MPH (4 knots; 2.1 m/s)
Visibility: 6 or more miles (10+ km)
Ceiling: 2500 feet AGL
Clouds: overcast cloud deck at 2500 feet AGL
Weather: no significant weather forecast for this period
TAF Text: FM191300 05006KT P6SM -RA OVC015
Forecast period: 1300 to 1700 UTC 19 December 2014
Forecast type: FROM: standard forecast or significant change
Winds: from the NE (50 degrees) at 7 MPH (6 knots; 3.1 m/s)
Visibility: 6 or more miles (10+ km)
Ceiling: 1500 feet AGL
Clouds: overcast cloud deck at 1500 feet AGL
Weather: -RA  (light rain)
TAF Text: FM191700 05005KT 4SM RA BKN008 OVC015
Forecast period: 1700 UTC 19 December 2014 to 0600 UTC 20 December 2014
Forecast type: FROM: standard forecast or significant change
Winds: from the NE (50 degrees) at 6 MPH (5 knots; 2.6 m/s)
Visibility: 4 miles (6 km)
Ceiling: 800 feet AGL
Clouds: broken clouds at 800 feet AGL
overcast cloud deck at 1500 feet AGL
Weather: RA  (rain)

Find All Airport Services Find A Hotel Find A Rental Car Find A Golf Course Find A Restaurant $100 Hamburger



FBO's on the Field
FBO Company Facility Photos Services Transportation Aviation Fuel Prices: Prices include tax
Catering Weather Repair Courtesy Rental Type 100LL JetA JetA+ MOGAS 8087
 
Atlantic Aviation - JAN

This FBO has not yet been rated
FS:Independent
Last Updated: Dec-18
Login to update fuel prices
SS:
Contact Atlantic Aviation - JANMore FBO Information
 
Add another FBO Facility Photos Catering Weather Repair Courtesy Rental Type 100LL JetA JetA+ MOGAS 8087
Services Transportation Aviation Fuel Prices: Prices include tax


model-print
model-print
model-print
model-print